Time;durP1;ratioP1;P1;durP2;ratioP2;P2;SDS_P1;SDS_P2;PMS_P1;PMS_P2;Temp;Humidity;BMP_temperature;BMP_pressure;BME280_temperature;BME280_humidity;BME280_pressure;Samples;Min_cycle;Max_cycle;Signal;HPM_P1;HPM_P2
2021/06/10 00:02:14;;;;;;;;;28.25;27.00;;;;;;;;3549450;39;113952;-66
2021/06/10 00:04:40;;;;;;;;;28.25;28.25;;;;;;;;3549031;39;113237;-66
2021/06/10 00:07:06;;;;;;;;;28.50;26.25;;;;;;;;3550821;39;113279;-67
2021/06/10 00:09:32;;;;;;;;;24.75;22.00;;;;;;;;3549956;39;112248;-66
2021/06/10 00:11:58;;;;;;;;;28.00;26.50;;;;;;;;3548796;39;113451;-66
2021/06/10 00:14:24;;;;;;;;;26.00;24.00;;;;;;;;3545456;39;113089;-68
2021/06/10 00:16:52;;;;;;;;;24.00;24.00;;;;;;;;3549348;39;112045;-68
2021/06/10 00:19:18;;;;;;;;;24.50;24.50;;;;;;;;3549112;39;113201;-67
2021/06/10 00:21:44;;;;;;;;;24.75;24.00;;;;;;;;3549374;39;114012;-67
2021/06/10 00:24:11;;;;;;;;;26.25;25.25;;;;;;;;3548461;39;111986;-67
2021/06/10 00:26:37;;;;;;;;;22.50;22.50;;;;;;;;3550100;39;113257;-67
2021/06/10 00:29:03;;;;;;;;;22.25;22.25;;;;;;;;3550753;39;113901;-67
2021/06/10 00:31:29;;;;;;;;;26.25;24.25;;;;;;;;3550524;39;113616;-67
2021/06/10 00:33:57;;;;;;;;;28.50;26.25;;;;;;;;3547312;39;112983;-67
2021/06/10 00:36:23;;;;;;;;;25.75;25.75;;;;;;;;3549112;39;112508;-67
2021/06/10 00:38:49;;;;;;;;;25.75;24.50;;;;;;;;3551193;39;113310;-68
2021/06/10 00:41:15;;;;;;;;;24.00;22.75;;;;;;;;3549120;39;114144;-67
2021/06/10 00:43:41;;;;;;;;;24.75;23.25;;;;;;;;3548318;39;111868;-67
2021/06/10 00:46:07;;;;;;;;;24.75;24.00;;;;;;;;3549021;39;113250;-67
2021/06/10 00:48:34;;;;;;;;;25.75;23.25;;;;;;;;3549449;39;113979;-67
2021/06/10 00:51:02;;;;;;;;;28.00;25.25;;;;;;;;3550132;39;112230;-67
2021/06/10 00:53:28;;;;;;;;;26.00;25.25;;;;;;;;3549114;39;113778;-67
2021/06/10 00:55:55;;;;;;;;;27.25;23.75;;;;;;;;3549357;39;111833;-68
2021/06/10 00:58:21;;;;;;;;;28.25;26.00;;;;;;;;3549500;39;113206;-67
2021/06/10 01:00:48;;;;;;;;;24.75;22.50;;;;;;;;3547448;39;113869;-67
2021/06/10 01:03:14;;;;;;;;;25.25;23.00;;;;;;;;3548400;39;112088;-67
2021/06/10 01:05:41;;;;;;;;;29.25;27.25;;;;;;;;3548584;39;113345;-67
2021/06/10 01:08:13;;;;;;;;;27.00;26.25;;;;;;;;3548771;39;114070;-68
2021/06/10 01:10:44;;;;;;;;;26.00;24.00;;;;;;;;3549862;39;112030;-67
2021/06/10 01:13:17;;;;;;;;;25.00;24.00;;;;;;;;3548780;39;114119;-69
2021/06/10 01:15:46;;;;;;;;;28.25;26.25;;;;;;;;3549118;39;112170;-67
2021/06/10 01:18:14;;;;;;;;;26.00;24.00;;;;;;;;3548907;39;113456;-67
2021/06/10 01:20:42;;;;;;;;;24.75;23.25;;;;;;;;3547469;39;113792;-68
2021/06/10 01:23:15;;;;;;;;;22.25;22.25;;;;;;;;3548128;39;111862;-67
2021/06/10 01:25:57;;;;;;;;;24.75;22.25;;;;;;;;3547152;39;112576;-67
2021/06/10 01:28:26;;;;;;;;;22.50;21.50;;;;;;;;3545704;39;112942;-67
2021/06/10 01:30:54;;;;;;;;;25.75;23.75;;;;;;;;3547301;39;112468;-70
2021/06/10 01:33:22;;;;;;;;;21.50;21.00;;;;;;;;3551277;39;113143;-68
2021/06/10 01:35:52;;;;;;;;;22.75;22.00;;;;;;;;3547593;39;112292;-68
2021/06/10 01:38:18;;;;;;;;;23.50;21.25;;;;;;;;3548656;39;113167;-68
2021/06/10 01:40:45;;;;;;;;;21.50;21.50;;;;;;;;3547313;39;113122;-68
2021/06/10 01:43:13;;;;;;;;;23.25;21.50;;;;;;;;3548152;39;111912;-68
2021/06/10 01:45:41;;;;;;;;;24.25;21.25;;;;;;;;3549772;39;113430;-68
2021/06/10 01:48:07;;;;;;;;;24.75;24.75;;;;;;;;3549424;39;113697;-68
2021/06/10 01:50:33;;;;;;;;;23.00;22.75;;;;;;;;3548094;39;112488;-68
2021/06/10 01:53:00;;;;;;;;;22.25;21.50;;;;;;;;3549515;39;113207;-68
2021/06/10 01:55:28;;;;;;;;;25.25;23.75;;;;;;;;3550814;39;113818;-68
2021/06/10 01:57:55;;;;;;;;;26.75;22.25;;;;;;;;3545542;39;112457;-68
2021/06/10 02:00:22;;;;;;;;;24.75;22.00;;;;;;;;3548310;39;114584;-68
2021/06/10 02:02:51;;;;;;;;;23.50;23.50;;;;;;;;3548425;39;111908;-68
2021/06/10 02:05:19;;;;;;;;;21.50;20.50;;;;;;;;3549085;39;113227;-68
2021/06/10 02:07:45;;;;;;;;;23.75;20.25;;;;;;;;3549761;39;114459;-68
2021/06/10 02:10:13;;;;;;;;;23.00;20.75;;;;;;;;3549714;39;111829;-68
2021/06/10 02:12:39;;;;;;;;;26.00;24.00;;;;;;;;3540750;39;112328;-68
2021/06/10 02:15:07;;;;;;;;;23.50;22.00;;;;;;;;3547467;39;114482;-68
2021/06/10 02:17:33;;;;;;;;;21.00;20.25;;;;;;;;3551993;39;111964;-69
2021/06/10 02:20:00;;;;;;;;;24.50;22.75;;;;;;;;3546502;39;113555;-68
2021/06/10 02:22:29;;;;;;;;;23.50;22.25;;;;;;;;3549001;39;112693;-68
2021/06/10 02:24:55;;;;;;;;;25.25;25.25;;;;;;;;3548347;39;113265;-68
2021/06/10 02:27:21;;;;;;;;;24.75;23.25;;;;;;;;3547940;39;113951;-68
2021/06/10 02:29:47;;;;;;;;;25.50;23.75;;;;;;;;3548921;39;111858;-69
2021/06/10 02:32:13;;;;;;;;;27.00;23.75;;;;;;;;3547875;39;113327;-68
2021/06/10 02:34:40;;;;;;;;;26.75;25.75;;;;;;;;3551043;39;113772;-69
2021/06/10 02:37:08;;;;;;;;;23.25;22.50;;;;;;;;3548077;39;112284;-69
2021/06/10 02:39:36;;;;;;;;;25.50;24.25;;;;;;;;3554193;39;113358;-69
2021/06/10 02:42:02;;;;;;;;;23.25;23.00;;;;;;;;3549688;39;112492;-69
2021/06/10 02:44:29;;;;;;;;;26.00;25.00;;;;;;;;3549833;39;113499;-71
2021/06/10 02:46:56;;;;;;;;;20.00;19.25;;;;;;;;3548244;39;113854;-68
2021/06/10 02:49:24;;;;;;;;;24.00;22.25;;;;;;;;3548708;39;112729;-70
2021/06/10 02:51:52;;;;;;;;;24.25;23.25;;;;;;;;3548664;39;113269;-68
2021/06/10 02:54:20;;;;;;;;;23.50;22.25;;;;;;;;3544009;39;113003;-68
2021/06/10 02:56:47;;;;;;;;;21.50;21.50;;;;;;;;3548693;39;112016;-68
2021/06/10 02:59:14;;;;;;;;;19.25;17.75;;;;;;;;3547739;39;113393;-68
2021/06/10 03:01:42;;;;;;;;;22.00;22.00;;;;;;;;3551079;39;111795;-68
2021/06/10 03:04:09;;;;;;;;;26.25;24.25;;;;;;;;3547366;39;113339;-68
2021/06/10 03:06:35;;;;;;;;;24.25;21.75;;;;;;;;3548825;39;115113;-69
2021/06/10 03:09:01;;;;;;;;;22.00;21.50;;;;;;;;3547576;39;112037;-68
2021/06/10 03:11:29;;;;;;;;;22.00;22.00;;;;;;;;3548652;39;113547;-68
2021/06/10 03:13:56;;;;;;;;;25.50;25.25;;;;;;;;3547428;39;114100;-67
2021/06/10 03:16:22;;;;;;;;;23.75;23.75;;;;;;;;3548145;39;112625;-68
2021/06/10 03:18:48;;;;;;;;;23.25;19.75;;;;;;;;3548353;39;113824;-68
2021/06/10 03:21:17;;;;;;;;;24.75;23.75;;;;;;;;3551605;39;113747;-68
2021/06/10 03:23:43;;;;;;;;;25.50;21.25;;;;;;;;3547253;39;113203;-68
2021/06/10 03:26:09;;;;;;;;;21.50;21.25;;;;;;;;3550658;39;113832;-69
2021/06/10 03:28:37;;;;;;;;;24.25;24.25;;;;;;;;3547408;39;112242;-68
2021/06/10 03:31:04;;;;;;;;;26.00;24.00;;;;;;;;3550393;39;113376;-68
2021/06/10 03:33:30;;;;;;;;;24.00;22.00;;;;;;;;3548525;39;113838;-69
2021/06/10 03:35:56;;;;;;;;;22.25;22.00;;;;;;;;3549752;39;111943;-68
2021/06/10 03:38:23;;;;;;;;;26.00;24.75;;;;;;;;3549343;39;113273;-68
2021/06/10 03:40:50;;;;;;;;;27.75;24.00;;;;;;;;3545413;39;113287;-68
2021/06/10 03:43:16;;;;;;;;;23.75;22.75;;;;;;;;3552488;39;112058;-68
2021/06/10 03:45:44;;;;;;;;;24.50;24.00;;;;;;;;3548356;39;113803;-68
2021/06/10 03:48:10;;;;;;;;;22.25;21.25;;;;;;;;3550365;39;112451;-68
2021/06/10 03:50:37;;;;;;;;;24.00;23.00;;;;;;;;3548706;39;113806;-68
2021/06/10 03:53:04;;;;;;;;;26.00;24.50;;;;;;;;3549716;39;113826;-68
2021/06/10 03:55:30;;;;;;;;;22.50;22.00;;;;;;;;3548760;39;112137;-68
2021/06/10 03:57:56;;;;;;;;;25.75;24.25;;;;;;;;3549944;39;113464;-68
2021/06/10 04:00:22;;;;;;;;;27.00;26.50;;;;;;;;3548777;39;113853;-68
2021/06/10 04:02:49;;;;;;;;;27.75;26.75;;;;;;;;3549423;39;111905;-68
2021/06/10 04:05:15;;;;;;;;;25.75;24.00;;;;;;;;3551757;39;113638;-68
2021/06/10 04:07:41;;;;;;;;;25.25;24.50;;;;;;;;3548747;39;111754;-68
2021/06/10 04:10:08;;;;;;;;;24.00;23.25;;;;;;;;3550284;39;113321;-68
2021/06/10 04:12:35;;;;;;;;;25.50;22.25;;;;;;;;3545996;39;113484;-67
2021/06/10 04:15:01;;;;;;;;;20.25;18.25;;;;;;;;3550006;39;111930;-68
2021/06/10 04:17:27;;;;;;;;;23.00;21.75;;;;;;;;3548868;39;113258;-69
2021/06/10 04:19:55;;;;;;;;;22.75;21.25;;;;;;;;3549051;39;113797;-68
2021/06/10 04:22:21;;;;;;;;;24.25;23.50;;;;;;;;3549208;39;112976;-68
2021/06/10 04:24:47;;;;;;;;;21.75;21.00;;;;;;;;3549057;39;113253;-68
2021/06/10 04:27:13;;;;;;;;;24.00;21.75;;;;;;;;3553911;39;113803;-68
2021/06/10 04:29:39;;;;;;;;;22.00;22.00;;;;;;;;3548751;39;113215;-68
2021/06/10 04:32:05;;;;;;;;;23.25;23.25;;;;;;;;3549826;39;113899;-68
2021/06/10 04:34:31;;;;;;;;;21.25;21.00;;;;;;;;3548616;39;111963;-68
2021/06/10 04:36:59;;;;;;;;;25.75;22.25;;;;;;;;3549719;39;113802;-68
2021/06/10 04:39:25;;;;;;;;;22.75;21.75;;;;;;;;3548258;39;113935;-68
2021/06/10 04:41:51;;;;;;;;;23.75;22.25;;;;;;;;3549168;39;111771;-68
2021/06/10 04:44:17;;;;;;;;;25.75;23.75;;;;;;;;3549140;39;113275;-67
2021/06/10 04:46:43;;;;;;;;;22.00;22.00;;;;;;;;3549291;39;113881;-69
2021/06/10 04:49:11;;;;;;;;;20.25;20.25;;;;;;;;3551098;39;112161;-68
2021/06/10 04:51:38;;;;;;;;;21.50;18.00;;;;;;;;3549579;39;114266;-68
2021/06/10 04:54:05;;;;;;;;;21.50;17.00;;;;;;;;3548099;39;111940;-68
2021/06/10 04:56:31;;;;;;;;;21.50;20.00;;;;;;;;3546399;39;112324;-69
2021/06/10 04:58:57;;;;;;;;;21.25;17.00;;;;;;;;3551588;39;114311;-68
2021/06/10 05:01:24;;;;;;;;;21.25;19.25;;;;;;;;3548845;39;112069;-68
2021/06/10 05:03:50;;;;;;;;;21.25;19.00;;;;;;;;3544951;39;112526;-68
2021/06/10 05:06:16;;;;;;;;;19.25;18.50;;;;;;;;3548024;39;114467;-67
2021/06/10 05:08:42;;;;;;;;;22.75;18.25;;;;;;;;3552264;39;111823;-67
2021/06/10 05:11:09;;;;;;;;;18.75;18.75;;;;;;;;3547777;39;113910;-67
2021/06/10 05:13:36;;;;;;;;;20.75;19.75;;;;;;;;3548323;39;111965;-72
2021/06/10 05:16:02;;;;;;;;;24.00;22.00;;;;;;;;3549608;39;113216;-71
2021/06/10 05:18:28;;;;;;;;;19.00;18.00;;;;;;;;3548161;39;114405;-71
2021/06/10 05:20:54;;;;;;;;;28.50;26.00;;;;;;;;3551301;39;113080;-72
2021/06/10 05:23:20;;;;;;;;;22.25;22.25;;;;;;;;3549797;39;113105;-72
2021/06/10 05:25:46;;;;;;;;;28.00;26.00;;;;;;;;3548928;39;114045;-72
2021/06/10 05:28:13;;;;;;;;;31.25;27.25;;;;;;;;3548232;39;111763;-72
2021/06/10 05:30:39;;;;;;;;;25.00;23.50;;;;;;;;3552078;39;113663;-74
2021/06/10 05:33:06;;;;;;;;;24.25;22.00;;;;;;;;3548315;39;112136;-74
2021/06/10 05:35:32;;;;;;;;;28.00;25.50;;;;;;;;3549695;39;114004;-72
2021/06/10 05:37:58;;;;;;;;;31.50;31.25;;;;;;;;3547973;39;113250;-73
2021/06/10 05:40:24;;;;;;;;;25.75;25.75;;;;;;;;3548158;39;111889;-73
2021/06/10 05:42:50;;;;;;;;;32.50;30.75;;;;;;;;3550617;39;113354;-72
2021/06/10 05:45:19;;;;;;;;;28.00;26.75;;;;;;;;3550152;39;114009;-71
2021/06/10 05:47:45;;;;;;;;;22.25;22.00;;;;;;;;3550367;39;112272;-71
2021/06/10 05:50:11;;;;;;;;;27.25;25.00;;;;;;;;3550876;39;113325;-72
2021/06/10 05:52:39;;;;;;;;;26.75;26.75;;;;;;;;3552324;39;115193;-75
2021/06/10 05:55:05;;;;;;;;;26.50;24.50;;;;;;;;3548002;39;113290;-74
2021/06/10 05:57:31;;;;;;;;;28.00;27.75;;;;;;;;3548320;39;114438;-75
2021/06/10 05:59:57;;;;;;;;;30.00;28.25;;;;;;;;3549426;39;112093;-72
2021/06/10 06:02:25;;;;;;;;;30.25;27.00;;;;;;;;3548276;39;113132;-74
2021/06/10 06:04:51;;;;;;;;;33.75;30.50;;;;;;;;3548118;39;114107;-70
2021/06/10 06:07:18;;;;;;;;;29.00;26.25;;;;;;;;3549031;39;112053;-72
2021/06/10 06:09:44;;;;;;;;;30.00;29.25;;;;;;;;3548450;39;114182;-72
2021/06/10 06:12:11;;;;;;;;;29.75;29.75;;;;;;;;3549077;39;113763;-73
2021/06/10 06:14:38;;;;;;;;;29.00;27.50;;;;;;;;3549632;39;111964;-71
2021/06/10 06:17:06;;;;;;;;;33.50;30.50;;;;;;;;3547318;39;114073;-71
2021/06/10 06:19:35;;;;;;;;;28.50;26.50;;;;;;;;3549370;39;112224;-72
2021/06/10 06:22:01;;;;;;;;;27.50;26.75;;;;;;;;3547983;39;113701;-69
2021/06/10 06:24:28;;;;;;;;;30.25;27.25;;;;;;;;3549270;39;113859;-71
2021/06/10 06:26:54;;;;;;;;;43.00;37.25;;;;;;;;3548793;39;111724;-72
2021/06/10 06:29:20;;;;;;;;;55.00;44.00;;;;;;;;3548569;39;113418;-76
2021/06/10 06:31:46;;;;;;;;;40.25;36.00;;;;;;;;3547841;39;113926;-73
2021/06/10 06:34:12;;;;;;;;;30.50;27.25;;;;;;;;3548976;39;111933;-73
2021/06/10 06:36:40;;;;;;;;;65.25;49.75;;;;;;;;3549995;39;114245;-73
2021/06/10 06:39:06;;;;;;;;;52.50;43.75;;;;;;;;3547476;39;111958;-74
2021/06/10 06:41:33;;;;;;;;;36.00;32.75;;;;;;;;3549177;39;113667;-72
2021/06/10 06:43:59;;;;;;;;;38.50;34.50;;;;;;;;3547247;39;113925;-72
2021/06/10 06:46:25;;;;;;;;;32.00;31.00;;;;;;;;3548707;39;111691;-72
2021/06/10 06:48:51;;;;;;;;;56.00;45.00;;;;;;;;3547537;39;113334;-72
2021/06/10 06:51:17;;;;;;;;;29.00;29.00;;;;;;;;3545466;39;113788;-72
2021/06/10 06:53:45;;;;;;;;;28.00;27.00;;;;;;;;3550070;39;113092;-71
2021/06/10 06:56:11;;;;;;;;;35.25;30.50;;;;;;;;3546700;39;112305;-71
2021/06/10 06:58:38;;;;;;;;;35.25;32.75;;;;;;;;3551036;39;113771;-71
2021/06/10 07:01:04;;;;;;;;;27.50;26.25;;;;;;;;3547338;39;113510;-72
2021/06/10 07:03:30;;;;;;;;;32.50;30.25;;;;;;;;3548596;39;113892;-72
2021/06/10 07:05:56;;;;;;;;;29.50;28.50;;;;;;;;3549128;39;111938;-72
2021/06/10 07:08:22;;;;;;;;;28.25;27.50;;;;;;;;3549576;39;113208;-74
2021/06/10 07:10:54;;;;;;;;;42.25;35.00;;;;;;;;3552184;39;114094;-72
2021/06/10 07:13:21;;;;;;;;;29.25;28.50;;;;;;;;3549509;39;112037;-72
2021/06/10 07:15:47;;;;;;;;;37.00;32.00;;;;;;;;3549251;39;113265;-72
2021/06/10 07:18:13;;;;;;;;;33.25;30.50;;;;;;;;3554807;39;113761;-72
2021/06/10 07:20:39;;;;;;;;;36.50;33.00;;;;;;;;3548442;39;113192;-71
2021/06/10 07:23:05;;;;;;;;;34.00;31.75;;;;;;;;3548250;39;113994;-71
2021/06/10 07:25:31;;;;;;;;;32.75;30.50;;;;;;;;3550847;39;111875;-71
2021/06/10 07:27:59;;;;;;;;;31.25;30.25;;;;;;;;3549007;39;113054;-72
2021/06/10 07:30:25;;;;;;;;;30.50;29.25;;;;;;;;3549579;39;113876;-71
2021/06/10 07:32:51;;;;;;;;;30.50;28.25;;;;;;;;3548281;39;112695;-71
2021/06/10 07:35:21;;;;;;;;;36.75;31.50;;;;;;;;3548007;39;112549;-71
2021/06/10 07:37:47;;;;;;;;;32.25;30.00;;;;;;;;3548850;39;113853;-71
2021/06/10 07:40:13;;;;;;;;;36.75;31.00;;;;;;;;3552549;39;112245;-71
2021/06/10 07:42:39;;;;;;;;;26.50;25.50;;;;;;;;3544907;39;112959;-72
2021/06/10 07:45:08;;;;;;;;;32.75;29.25;;;;;;;;3550335;39;111930;-72
2021/06/10 07:47:34;;;;;;;;;29.00;29.00;;;;;;;;3548644;39;113247;-71
2021/06/10 07:50:00;;;;;;;;;30.25;29.00;;;;;;;;3547908;39;112707;-71
2021/06/10 07:52:26;;;;;;;;;29.50;28.75;;;;;;;;3549111;39;111874;-76
2021/06/10 07:54:52;;;;;;;;;32.25;29.50;;;;;;;;3549019;39;113307;-70
2021/06/10 07:57:18;;;;;;;;;37.00;32.25;;;;;;;;3548311;39;114005;-71
2021/06/10 07:59:46;;;;;;;;;28.75;28.25;;;;;;;;3549822;39;112255;-72
2021/06/10 08:02:14;;;;;;;;;31.00;27.75;;;;;;;;3550959;39;113419;-72
2021/06/10 08:04:40;;;;;;;;;27.50;25.75;;;;;;;;3550193;39;112327;-74
2021/06/10 08:07:06;;;;;;;;;33.00;29.50;;;;;;;;3548462;39;113286;-73
2021/06/10 08:09:32;;;;;;;;;30.75;28.25;;;;;;;;3549713;39;114316;-76
2021/06/10 08:11:59;;;;;;;;;29.25;27.50;;;;;;;;3548037;39;112049;-72
2021/06/10 08:14:25;;;;;;;;;30.75;29.50;;;;;;;;3547801;39;113275;-73
2021/06/10 08:16:51;;;;;;;;;29.33;27.00;;;;;;;;3547231;39;114047;-73
2021/06/10 08:19:18;;;;;;;;;27.67;27.67;;;;;;;;3547433;39;112661;-73
2021/06/10 08:21:44;;;;;;;;;32.00;29.67;;;;;;;;3548335;39;113347;-74
2021/06/10 08:24:11;;;;;;;;;26.33;25.67;;;;;;;;3548854;39;114182;-74
2021/06/10 08:26:37;;;;;;;;;27.33;27.33;;;;;;;;3548678;39;113469;-74
2021/06/10 08:29:03;;;;;;;;;29.00;27.67;;;;;;;;3545681;39;112886;-74
2021/06/10 08:31:30;;;;;;;;;26.00;26.00;;;;;;;;3549831;39;112184;-73
2021/06/10 08:33:56;;;;;;;;;29.00;27.67;;;;;;;;3548769;39;113497;-73
2021/06/10 08:36:23;;;;;;;;;32.67;30.00;;;;;;;;3548693;39;113920;-73
2021/06/10 08:38:51;;;;;;;;;31.00;27.67;;;;;;;;3549013;39;111952;-73
2021/06/10 08:41:17;;;;;;;;;30.33;28.33;;;;;;;;3548887;39;114319;-74
2021/06/10 08:43:43;;;;;;;;;29.33;27.33;;;;;;;;3545831;39;112965;-73
2021/06/10 08:46:10;;;;;;;;;20.67;20.00;;;;;;;;3550797;39;111854;-73
2021/06/10 08:48:36;;;;;;;;;25.67;24.33;;;;;;;;3549651;39;113917;-73
2021/06/10 08:51:04;;;;;;;;;24.67;24.33;;;;;;;;3548208;39;112363;-73
2021/06/10 08:53:32;;;;;;;;;23.00;23.00;;;;;;;;3550054;39;113372;-73
2021/06/10 08:55:58;;;;;;;;;29.33;27.67;;;;;;;;3547842;39;113814;-72
2021/06/10 08:58:24;;;;;;;;;20.33;20.33;;;;;;;;3549196;39;112172;-72
2021/06/10 09:00:51;;;;;;;;;18.33;18.00;;;;;;;;3548926;39;113309;-73
2021/06/10 09:03:21;;;;;;;;;19.00;17.00;;;;;;;;3548215;39;114429;-72
2021/06/10 09:05:59;;;;;;;;;19.67;19.67;;;;;;;;3549048;39;112332;-73
2021/06/10 09:08:25;;;;;;;;;20.00;19.00;;;;;;;;3551562;39;113895;-73
2021/06/10 09:11:01;;;;;;;;;20.00;20.00;;;;;;;;3548827;39;111856;-73
2021/06/10 09:13:35;;;;;;;;;18.33;18.33;;;;;;;;3549549;39;113619;-73
2021/06/10 09:16:15;;;;;;;;;23.00;23.00;;;;;;;;3547469;39;113901;-72
2021/06/10 09:18:48;;;;;;;;;24.67;24.67;;;;;;;;3547402;39;112126;-71
2021/06/10 09:21:23;;;;;;;;;26.00;23.67;;;;;;;;3549550;39;113340;-73
2021/06/10 09:23:49;;;;;;;;;22.00;22.00;;;;;;;;3548645;39;114459;-70
2021/06/10 09:26:17;;;;;;;;;20.00;20.00;;;;;;;;3548687;39;111776;-71
2021/06/10 09:28:44;;;;;;;;;20.67;18.67;;;;;;;;3548619;39;112745;-71
2021/06/10 09:31:10;;;;;;;;;20.00;19.67;;;;;;;;3548371;39;111864;-73
2021/06/10 09:33:42;;;;;;;;;22.33;22.33;;;;;;;;3548706;39;114255;-72
2021/06/10 09:36:13;;;;;;;;;27.33;24.00;;;;;;;;3546610;39;113822;-72
2021/06/10 09:38:40;;;;;;;;;24.33;24.00;;;;;;;;3549106;39;111979;-72
2021/06/10 09:41:07;;;;;;;;;23.67;23.00;;;;;;;;3547497;39;112716;-73
2021/06/10 09:43:44;;;;;;;;;24.00;23.00;;;;;;;;3549873;39;113447;-73
2021/06/10 09:46:10;;;;;;;;;22.00;21.67;;;;;;;;3548070;39;112144;-71
2021/06/10 09:48:36;;;;;;;;;20.00;19.67;;;;;;;;3549957;39;113200;-72
2021/06/10 09:51:02;;;;;;;;;24.00;24.00;;;;;;;;3550112;39;114503;-72
2021/06/10 09:53:31;;;;;;;;;21.67;20.67;;;;;;;;3547343;39;113304;-71
2021/06/10 09:55:59;;;;;;;;;22.00;21.00;;;;;;;;3548799;39;113994;-72
2021/06/10 09:58:26;;;;;;;;;20.67;19.67;;;;;;;;3546183;39;111913;-73
2021/06/10 10:00:55;;;;;;;;;20.33;20.00;;;;;;;;3549126;39;113800;-72
2021/06/10 10:03:43;;;;;;;;;21.67;19.00;;;;;;;;3547538;39;114272;-72
2021/06/10 10:06:17;;;;;;;;;19.33;17.67;;;;;;;;3545925;39;112087;-72
2021/06/10 10:08:45;;;;;;;;;29.33;28.00;;;;;;;;3548988;39;113642;-72
2021/06/10 10:11:11;;;;;;;;;20.00;20.00;;;;;;;;3545674;39;112858;-72
2021/06/10 10:13:39;;;;;;;;;21.00;20.00;;;;;;;;3548536;39;112067;-72
2021/06/10 10:16:07;;;;;;;;;19.67;17.67;;;;;;;;3547028;39;114036;-72
2021/06/10 10:18:33;;;;;;;;;22.33;21.67;;;;;;;;3547779;39;111759;-71
2021/06/10 10:20:59;;;;;;;;;18.00;16.67;;;;;;;;3547486;39;112234;-72
2021/06/10 10:23:25;;;;;;;;;22.67;22.67;;;;;;;;3547607;39;114005;-71
2021/06/10 10:25:53;;;;;;;;;25.33;24.33;;;;;;;;3545285;39;112141;-72
2021/06/10 10:28:19;;;;;;;;;22.33;21.00;;;;;;;;3548381;39;113427;-72
2021/06/10 10:30:46;;;;;;;;;19.67;19.67;;;;;;;;3547894;39;113818;-72
2021/06/10 10:33:17;;;;;;;;;23.33;22.00;;;;;;;;3548844;39;111991;-72
2021/06/10 10:35:48;;;;;;;;;21.33;20.00;;;;;;;;3550280;39;113529;-72
2021/06/10 10:38:15;;;;;;;;;19.33;18.67;;;;;;;;3549022;39;112157;-72
2021/06/10 10:40:50;;;;;;;;;20.00;19.33;;;;;;;;3549270;39;113388;-72
2021/06/10 10:43:16;;;;;;;;;19.00;17.67;;;;;;;;3546180;39;113187;-72
2021/06/10 10:45:45;;;;;;;;;19.33;19.00;;;;;;;;3549082;39;111845;-72
2021/06/10 10:48:14;;;;;;;;;33.67;30.67;;;;;;;;3550238;39;113420;-72
2021/06/10 10:50:43;;;;;;;;;20.00;19.67;;;;;;;;3546902;39;113300;-72
2021/06/10 10:53:14;;;;;;;;;22.00;20.00;;;;;;;;3548905;39;112029;-72
2021/06/10 10:55:44;;;;;;;;;20.67;19.67;;;;;;;;3548351;39;112573;-70
2021/06/10 10:58:16;;;;;;;;;24.00;22.00;;;;;;;;3548017;39;113085;-70
2021/06/10 11:00:47;;;;;;;;;23.00;20.67;;;;;;;;3550510;39;113223;-71
2021/06/10 11:03:17;;;;;;;;;23.33;23.00;;;;;;;;3549253;39;113395;-71
2021/06/10 11:05:45;;;;;;;;;21.67;21.67;;;;;;;;3545860;39;112497;-71
2021/06/10 11:08:11;;;;;;;;;34.00;30.00;;;;;;;;3550016;39;113678;-74
2021/06/10 11:11:01;;;;;;;;;33.00;30.00;;;;;;;;3548444;39;113670;-71
2021/06/10 11:13:29;;;;;;;;;20.33;20.00;;;;;;;;3548817;39;111946;-74
2021/06/10 11:15:56;;;;;;;;;21.00;20.00;;;;;;;;3548770;39;112419;-74
2021/06/10 11:18:40;;;;;;;;;22.67;22.00;;;;;;;;3548695;39;113971;-73
2021/06/10 11:21:08;;;;;;;;;18.33;17.33;;;;;;;;3551835;39;111852;-76
2021/06/10 11:23:34;;;;;;;;;19.67;18.67;;;;;;;;3548428;39;113803;-72
2021/06/10 11:26:03;;;;;;;;;26.33;25.33;;;;;;;;3547992;39;112793;-73
2021/06/10 11:28:30;;;;;;;;;29.00;28.00;;;;;;;;3550216;39;113529;-73
2021/06/10 11:31:12;;;;;;;;;31.00;28.00;;;;;;;;3547228;39;112686;-71
2021/06/10 11:33:38;;;;;;;;;20.00;19.67;;;;;;;;3549933;39;112106;-71
2021/06/10 11:36:05;;;;;;;;;23.33;23.00;;;;;;;;3549184;39;112772;-70
2021/06/10 11:38:37;;;;;;;;;22.33;20.67;;;;;;;;3549174;39;113952;-70
2021/06/10 11:41:04;;;;;;;;;32.00;30.00;;;;;;;;3552105;39;112270;-71
2021/06/10 11:43:31;;;;;;;;;21.33;20.33;;;;;;;;3549815;39;114288;-70
2021/06/10 11:45:58;;;;;;;;;21.67;20.33;;;;;;;;3551263;39;112919;-70
2021/06/10 11:48:32;;;;;;;;;21.67;21.67;;;;;;;;3548441;39;113365;-70
2021/06/10 11:50:58;;;;;;;;;20.67;20.00;;;;;;;;3548060;39;113871;-70
2021/06/10 11:53:27;;;;;;;;;22.67;22.67;;;;;;;;3547534;39;114560;-71
2021/06/10 11:55:56;;;;;;;;;23.33;23.00;;;;;;;;3549100;39;113067;-71
2021/06/10 11:58:25;;;;;;;;;22.33;21.67;;;;;;;;3548265;39;113909;-69
2021/06/10 12:00:51;;;;;;;;;24.33;23.33;;;;;;;;3548884;39;111985;-70
2021/06/10 12:03:17;;;;;;;;;21.33;21.33;;;;;;;;3551808;39;113278;-72
2021/06/10 12:05:47;;;;;;;;;23.67;23.00;;;;;;;;3549017;39;111813;-72
2021/06/10 12:08:14;;;;;;;;;26.33;23.67;;;;;;;;3549323;39;113050;-73
2021/06/10 12:10:41;;;;;;;;;23.33;22.00;;;;;;;;3548326;39;114155;-73
2021/06/10 12:13:08;;;;;;;;;20.67;20.67;;;;;;;;3549693;39;112631;-74
2021/06/10 12:15:44;;;;;;;;;22.00;22.00;;;;;;;;3544797;39;112558;-72
2021/06/10 12:18:10;;;;;;;;;23.33;22.33;;;;;;;;3548137;39;113888;-73
2021/06/10 12:20:38;;;;;;;;;18.00;18.00;;;;;;;;3548692;39;111920;-76
2021/06/10 12:23:11;;;;;;;;;20.67;20.00;;;;;;;;3549194;39;114271;-77
2021/06/10 12:25:37;;;;;;;;;23.67;22.67;;;;;;;;3551893;39;113777;-75
2021/06/10 12:28:04;;;;;;;;;36.00;32.25;;;;;;;;3547249;39;113383;-73
2021/06/10 12:30:35;;;;;;;;;33.75;29.50;;;;;;;;3547841;39;114397;-72
2021/06/10 12:33:14;;;;;;;;;26.25;25.75;;;;;;;;3548097;39;112068;-73
2021/06/10 12:35:40;;;;;;;;;21.00;19.33;;;;;;;;3549444;39;113275;-73
2021/06/10 12:38:06;;;;;;;;;34.67;30.00;;;;;;;;3546644;39;114041;-73
2021/06/10 12:40:37;;;;;;;;;29.67;27.33;;;;;;;;3550180;39;113003;-72
2021/06/10 12:43:07;;;;;;;;;18.33;18.33;;;;;;;;3551226;39;113421;-72
2021/06/10 12:45:34;;;;;;;;;40.25;33.50;;;;;;;;3548370;39;113823;-73
2021/06/10 12:48:00;;;;;;;;;50.50;41.00;;;;;;;;3550716;39;111933;-74
2021/06/10 12:50:28;;;;;;;;;42.25;35.00;;;;;;;;3547522;39;113148;-73
2021/06/10 12:52:54;;;;;;;;;32.25;30.50;;;;;;;;3548234;39;111805;-73
2021/06/10 12:55:26;;;;;;;;;40.75;35.00;;;;;;;;3549173;39;113270;-73
2021/06/10 12:57:55;;;;;;;;;39.50;32.75;;;;;;;;3548049;39;113793;-73
2021/06/10 13:00:29;;;;;;;;;26.50;25.75;;;;;;;;3549216;39;111857;-74
2021/06/10 13:03:03;;;;;;;;;34.50;31.50;;;;;;;;3547517;39;113526;-73
2021/06/10 13:05:29;;;;;;;;;39.75;34.00;;;;;;;;3547444;39;114179;-73
2021/06/10 13:07:56;;;;;;;;;36.75;32.75;;;;;;;;3549597;39;112280;-72
2021/06/10 13:10:32;;;;;;;;;36.75;32.25;;;;;;;;3550566;39;113720;-73
2021/06/10 13:12:59;;;;;;;;;29.00;26.75;;;;;;;;3549621;39;112366;-73
2021/06/10 13:15:25;;;;;;;;;35.50;31.50;;;;;;;;3548285;39;113584;-74
2021/06/10 13:17:53;;;;;;;;;27.75;27.00;;;;;;;;3548776;39;114400;-74
2021/06/10 13:20:37;;;;;;;;;41.25;34.50;;;;;;;;3549166;39;112113;-73
2021/06/10 13:23:05;;;;;;;;;36.75;32.75;;;;;;;;3548052;39;113696;-73
2021/06/10 13:25:31;;;;;;;;;35.75;31.50;;;;;;;;3546606;39;113856;-73
2021/06/10 13:28:07;;;;;;;;;35.75;32.50;;;;;;;;3547404;39;111972;-73
2021/06/10 13:30:33;;;;;;;;;25.00;25.00;;;;;;;;3548595;39;113326;-73
2021/06/10 13:32:59;;;;;;;;;32.25;28.75;;;;;;;;3550023;39;112353;-73
2021/06/10 13:35:26;;;;;;;;;29.50;28.75;;;;;;;;3549526;39;113290;-72
2021/06/10 13:37:52;;;;;;;;;19.33;19.33;;;;;;;;3546011;39;113752;-72
2021/06/10 13:40:20;;;;;;;;;31.75;30.25;;;;;;;;3546306;39;112587;-72
2021/06/10 13:42:50;;;;;;;;;33.50;30.00;;;;;;;;3547592;39;113170;-72
2021/06/10 13:45:17;;;;;;;;;39.50;33.25;;;;;;;;3548292;39;114077;-72
2021/06/10 13:47:43;;;;;;;;;37.50;33.25;;;;;;;;3548596;39;112856;-73
2021/06/10 13:50:09;;;;;;;;;35.75;32.00;;;;;;;;3547133;39;113827;-72
2021/06/10 13:52:36;;;;;;;;;32.75;28.75;;;;;;;;3552325;39;113815;-73
2021/06/10 13:55:08;;;;;;;;;29.25;28.50;;;;;;;;3548134;39;113102;-73
2021/06/10 13:57:36;;;;;;;;;26.50;25.75;;;;;;;;3547357;39;114134;-73
2021/06/10 14:00:02;;;;;;;;;37.75;31.75;;;;;;;;3549435;39;112382;-72
2021/06/10 14:02:28;;;;;;;;;32.25;30.25;;;;;;;;3547568;39;113483;-72
2021/06/10 14:04:55;;;;;;;;;41.00;34.50;;;;;;;;3547034;39;113878;-72
2021/06/10 14:07:21;;;;;;;;;38.00;34.00;;;;;;;;3547618;39;112185;-74